createdAt,value
2016-04-04T00:00:02.343Z,17.91
2016-04-04T00:01:02.284Z,17.95
2016-04-04T00:02:02.458Z,17.97
2016-04-04T00:03:02.196Z,17.93
2016-04-04T00:04:02.167Z,17.93
2016-04-04T00:05:05.123Z,17.88
2016-04-04T00:06:02.078Z,17.94
2016-04-04T00:07:02.018Z,17.94
2016-04-04T00:08:01.959Z,17.88
2016-04-04T00:09:01.930Z,17.95
2016-04-04T00:10:01.886Z,17.93
2016-04-04T00:11:01.826Z,17.94
2016-04-04T00:12:01.782Z,17.95
2016-04-04T00:13:01.738Z,17.93
2016-04-04T00:14:01.881Z,17.95
2016-04-04T00:15:01.650Z,17.94
2016-04-04T00:16:01.606Z,17.9
2016-04-04T00:17:01.530Z,17.82
2016-04-04T00:18:01.766Z,17.94
2016-04-04T00:19:01.769Z,17.95
2016-04-04T00:20:04.757Z,17.94
2016-04-04T00:21:01.385Z,17.98
2016-04-04T00:22:01.325Z,17.91
2016-04-04T00:23:01.265Z,17.98
2016-04-04T00:24:01.221Z,17.91
2016-04-04T00:25:04.223Z,17.97
2016-04-04T00:26:01.132Z,17.94
2016-04-04T00:27:01.088Z,17.94
2016-04-04T00:28:04.044Z,17.93
2016-04-04T00:29:01.015Z,17.91
2016-04-04T00:30:00.987Z,17.91
2016-04-04T00:31:00.911Z,17.9
2016-04-04T00:32:00.851Z,17.9
2016-04-04T00:33:00.792Z,17.95
2016-04-04T00:34:03.779Z,17.97
2016-04-04T00:35:00.703Z,17.94
2016-04-04T00:36:00.659Z,17.93
2016-04-04T00:37:00.614Z,17.91
2016-04-04T00:38:00.586Z,17.91
2016-04-04T00:39:03.527Z,17.98
2016-04-04T00:40:03.497Z,17.95
2016-04-04T00:41:00.423Z,17.98
2016-04-04T00:42:00.409Z,17.95
2016-04-04T00:43:00.364Z,17.93
2016-04-04T00:44:00.289Z,17.95
2016-04-04T00:45:00.246Z,17.98
2016-04-04T00:46:00.202Z,17.94
2016-04-04T00:47:00.376Z,17.93
2016-04-04T00:48:00.128Z,17.97
2016-04-04T00:49:00.069Z,17.95
2016-04-04T00:50:00.008Z,17.95
2016-04-04T00:50:59.980Z,17.95
2016-04-04T00:52:02.936Z,17.94
2016-04-04T00:52:59.877Z,17.93
2016-04-04T00:53:59.832Z,17.93
2016-04-04T00:54:59.757Z,17.98
2016-04-04T00:55:59.729Z,17.91
2016-04-04T00:56:59.669Z,17.95
2016-04-04T00:57:59.640Z,17.98
2016-04-04T00:59:02.627Z,17.97
2016-04-04T00:59:59.598Z,17.94
2016-04-04T01:00:59.507Z,17.95
2016-04-04T01:01:59.448Z,17.9
2016-04-04T01:02:59.404Z,17.91
2016-04-04T01:03:59.360Z,17.91
2016-04-04T01:05:02.315Z,17.91
2016-04-04T01:05:59.271Z,17.95
2016-04-04T01:07:05.430Z,17.93
2016-04-04T01:07:59.168Z,17.93
2016-04-04T01:08:59.545Z,17.95
2016-04-04T01:09:59.063Z,17.98
2016-04-04T01:11:02.082Z,17.82
2016-04-04T01:11:58.975Z,17.9
2016-04-04T01:12:59.212Z,17.95
2016-04-04T01:13:58.870Z,17.98
2016-04-04T01:15:02.248Z,17.95
2016-04-04T01:15:58.814Z,17.93
2016-04-04T01:17:01.753Z,17.91
2016-04-04T01:18:01.709Z,17.94
2016-04-04T01:19:01.884Z,17.91
2016-04-04T01:19:58.619Z,17.93
2016-04-04T01:20:58.558Z,17.9
2016-04-04T01:22:01.564Z,17.95
2016-04-04T01:22:58.674Z,17.95
2016-04-04T01:23:58.677Z,17.95
2016-04-04T01:24:58.775Z,17.95
2016-04-04T01:25:58.338Z,17.98
2016-04-04T01:27:04.280Z,17.94
2016-04-04T01:27:58.218Z,17.94
2016-04-04T01:28:58.393Z,17.88
2016-04-04T01:29:58.129Z,17.91
2016-04-04T01:31:04.119Z,17.94
2016-04-04T01:31:58.026Z,17.94
2016-04-04T01:32:57.997Z,17.9
2016-04-04T01:33:57.954Z,17.93
2016-04-04T01:34:57.893Z,17.86
2016-04-04T01:36:01.071Z,17.86
2016-04-04T01:36:57.805Z,17.93
2016-04-04T01:37:57.777Z,17.97
2016-04-04T01:38:57.717Z,17.93
2016-04-04T01:40:00.660Z,17.94
2016-04-04T01:40:57.816Z,17.93
2016-04-04T01:41:57.584Z,17.88
2016-04-04T01:42:57.524Z,17.93
2016-04-04T01:43:57.480Z,17.9
2016-04-04T01:45:00.454Z,17.87
2016-04-04T01:45:57.236Z,17.93
2016-04-04T01:46:57.347Z,17.95
2016-04-04T01:47:57.287Z,17.94
2016-04-04T01:48:57.289Z,17.95
2016-04-04T01:49:57.214Z,17.94
2016-04-04T01:50:57.186Z,17.98
2016-04-04T01:51:57.110Z,17.94
2016-04-04T01:52:57.066Z,17.91
2016-04-04T01:54:00.055Z,17.93
2016-04-04T01:54:56.977Z,17.94
2016-04-04T01:55:56.918Z,17.93
2016-04-04T01:56:57.186Z,17.95
2016-04-04T01:57:56.861Z,17.91
2016-04-04T01:58:56.785Z,17.93
2016-04-04T01:59:56.741Z,17.93
2016-04-04T02:00:56.562Z,17.91
2016-04-04T02:01:56.643Z,17.93
2016-04-04T02:02:56.583Z,17.9
2016-04-04T02:03:56.585Z,17.93
2016-04-04T02:04:56.495Z,17.95
2016-04-04T02:05:56.465Z,17.93
2016-04-04T02:06:56.421Z,17.93
2016-04-04T02:07:56.362Z,17.93
2016-04-04T02:08:59.348Z,17.95
2016-04-04T02:09:56.289Z,17.88
2016-04-04T02:10:56.229Z,17.93
2016-04-04T02:11:59.217Z,17.9
2016-04-04T02:12:59.328Z,17.9
2016-04-04T02:13:56.097Z,17.9
2016-04-04T02:14:56.100Z,17.9
2016-04-04T02:15:56.025Z,17.93
2016-04-04T02:16:55.808Z,17.9
2016-04-04T02:17:55.905Z,17.9
2016-04-04T02:18:56.047Z,17.88
2016-04-04T02:19:55.863Z,17.87
2016-04-04T02:20:55.772Z,17.91
2016-04-04T02:21:55.712Z,17.88
2016-04-04T02:22:55.684Z,17.93
2016-04-04T02:23:55.624Z,17.91
2016-04-04T02:24:55.564Z,17.9
2016-04-04T02:25:55.504Z,17.9
2016-04-04T02:26:55.460Z,17.9
2016-04-04T02:27:58.447Z,17.9
2016-04-04T02:28:55.403Z,17.88
2016-04-04T02:29:55.749Z,17.9
2016-04-04T02:30:55.299Z,17.9
2016-04-04T02:31:55.255Z,17.86
2016-04-04T02:32:55.195Z,17.88
2016-04-04T02:33:55.166Z,17.93
2016-04-04T02:34:55.091Z,17.91
2016-04-04T02:35:55.062Z,17.93
2016-04-04T02:36:55.002Z,17.87
2016-04-04T02:37:54.943Z,17.91
2016-04-04T02:38:57.914Z,17.91
2016-04-04T02:39:54.885Z,17.93
2016-04-04T02:40:54.826Z,17.9
2016-04-04T02:41:54.781Z,17.91
2016-04-04T02:42:54.737Z,17.8
2016-04-04T02:43:54.678Z,17.91
2016-04-04T02:44:57.649Z,17.91
2016-04-04T02:45:54.589Z,17.9
2016-04-04T02:46:57.561Z,17.9
2016-04-04T02:47:57.704Z,17.9
2016-04-04T02:48:54.441Z,17.88
2016-04-04T02:49:54.459Z,17.87
2016-04-04T02:50:54.477Z,17.9
2016-04-04T02:51:54.355Z,17.87
2016-04-04T02:52:54.249Z,17.9
2016-04-04T02:53:57.297Z,17.82
2016-04-04T02:54:54.379Z,17.87
2016-04-04T02:55:54.132Z,17.91
2016-04-04T02:56:57.102Z,17.93
2016-04-04T02:58:00.059Z,17.91
2016-04-04T02:58:53.999Z,17.87
2016-04-04T02:59:53.939Z,17.9
2016-04-04T03:01:00.129Z,17.86
2016-04-04T03:01:57.149Z,17.87
2016-04-04T03:02:56.885Z,17.9
2016-04-04T03:03:55.371Z,17.88
2016-04-04T03:04:53.703Z,17.9
2016-04-04T03:05:53.659Z,17.91
2016-04-04T03:06:53.599Z,17.9
2016-04-04T03:07:53.547Z,17.91
2016-04-04T03:08:53.519Z,17.93
2016-04-04T03:09:53.475Z,17.9
2016-04-04T03:10:53.446Z,17.88
2016-04-04T03:11:53.387Z,17.91
2016-04-04T03:12:53.327Z,17.9
2016-04-04T03:13:56.501Z,17.88
2016-04-04T03:14:56.457Z,17.91
2016-04-04T03:15:53.194Z,17.87
2016-04-04T03:16:53.150Z,17.9
2016-04-04T03:17:53.106Z,17.87
2016-04-04T03:18:53.046Z,17.88
2016-04-04T03:19:53.127Z,17.95
2016-04-04T03:20:52.957Z,17.87
2016-04-04T03:21:53.117Z,17.9
2016-04-04T03:22:52.854Z,17.86
2016-04-04T03:23:52.825Z,17.88
2016-04-04T03:24:52.765Z,17.9
2016-04-04T03:25:52.737Z,17.82
2016-04-04T03:26:52.677Z,17.88
2016-04-04T03:27:52.617Z,17.91
2016-04-04T03:28:52.901Z,17.91
2016-04-04T03:29:52.544Z,17.9
2016-04-04T03:30:52.484Z,17.9
2016-04-04T03:31:55.441Z,17.9
2016-04-04T03:32:52.802Z,17.87
2016-04-04T03:33:55.352Z,17.91
2016-04-04T03:34:52.417Z,17.91
2016-04-04T03:35:52.248Z,17.86
2016-04-04T03:36:52.204Z,17.91
2016-04-04T03:37:52.472Z,17.93
2016-04-04T03:38:52.116Z,17.9
2016-04-04T03:39:52.072Z,17.9
2016-04-04T03:40:55.043Z,17.9
2016-04-04T03:41:52.170Z,17.91
2016-04-04T03:42:51.924Z,17.91
2016-04-04T03:43:54.879Z,17.88
2016-04-04T03:44:51.834Z,17.87
2016-04-04T03:45:51.791Z,17.93
2016-04-04T03:46:51.591Z,17.88
2016-04-04T03:47:51.702Z,17.84
2016-04-04T03:48:54.657Z,17.93
2016-04-04T03:49:51.599Z,17.87
2016-04-04T03:50:51.554Z,17.87
2016-04-04T03:51:57.525Z,17.87
2016-04-04T03:52:54.481Z,17.88
2016-04-04T03:53:51.625Z,17.87
2016-04-04T03:54:51.378Z,17.91
2016-04-04T03:55:51.317Z,17.91
2016-04-04T03:56:51.289Z,17.9
2016-04-04T03:57:51.245Z,17.87
2016-04-04T03:58:51.357Z,17.88
2016-04-04T03:59:51.469Z,17.87
2016-04-04T04:00:54.097Z,17.93
2016-04-04T04:01:54.053Z,17.91
2016-04-04T04:02:51.008Z,17.88
2016-04-04T04:03:50.964Z,17.93
2016-04-04T04:04:50.905Z,17.87
2016-04-04T04:05:51.064Z,17.93
2016-04-04T04:06:53.817Z,17.87
2016-04-04T04:07:53.773Z,17.9
2016-04-04T04:08:50.728Z,17.91
2016-04-04T04:09:50.684Z,17.87
2016-04-04T04:10:50.640Z,17.87
2016-04-04T04:11:50.580Z,17.88
2016-04-04T04:12:50.520Z,17.87
2016-04-04T04:13:50.476Z,17.88
2016-04-04T04:14:50.433Z,17.9
2016-04-04T04:15:50.419Z,17.88
2016-04-04T04:16:50.344Z,17.88
2016-04-04T04:17:53.300Z,17.91
2016-04-04T04:18:50.271Z,17.87
2016-04-04T04:19:50.524Z,17.86
2016-04-04T04:20:50.166Z,17.88
2016-04-04T04:21:50.405Z,17.8
2016-04-04T04:22:50.079Z,17.86
2016-04-04T04:23:53.049Z,17.84
2016-04-04T04:24:53.288Z,17.87
2016-04-04T04:25:52.946Z,17.91
2016-04-04T04:26:50.277Z,17.86
2016-04-04T04:27:49.857Z,17.88
2016-04-04T04:28:49.767Z,17.88
2016-04-04T04:29:49.973Z,17.94
2016-04-04T04:30:49.709Z,17.86
2016-04-04T04:31:49.634Z,17.86
2016-04-04T04:32:49.589Z,17.9
2016-04-04T04:33:49.530Z,17.86
2016-04-04T04:34:49.720Z,17.86
2016-04-04T04:35:49.473Z,17.88
2016-04-04T04:36:52.429Z,17.87
2016-04-04T04:37:49.369Z,17.88
2016-04-04T04:38:52.372Z,17.93
2016-04-04T04:39:49.280Z,17.84
2016-04-04T04:40:52.221Z,17.82
2016-04-04T04:41:49.176Z,17.87
2016-04-04T04:42:49.148Z,17.88
2016-04-04T04:43:49.103Z,17.9
2016-04-04T04:44:52.247Z,17.91
2016-04-04T04:45:48.984Z,17.91
2016-04-04T04:46:48.939Z,17.84
2016-04-04T04:47:48.927Z,17.91
2016-04-04T04:48:52.070Z,17.94
2016-04-04T04:49:48.870Z,17.82
2016-04-04T04:50:48.747Z,17.91
2016-04-04T04:51:48.703Z,17.87
2016-04-04T04:52:48.878Z,17.9
2016-04-04T04:53:51.615Z,17.82
2016-04-04T04:54:48.586Z,17.82
2016-04-04T04:55:48.557Z,17.88
2016-04-04T04:56:48.482Z,17.94
2016-04-04T04:57:48.454Z,17.87
2016-04-04T04:58:48.394Z,17.87
2016-04-04T04:59:48.334Z,17.94
2016-04-04T05:00:48.290Z,17.91
2016-04-04T05:01:48.262Z,17.93
2016-04-04T05:02:51.201Z,17.87
2016-04-04T05:03:51.158Z,17.9
2016-04-04T05:04:48.270Z,17.86
2016-04-04T05:05:48.054Z,17.87
2016-04-04T05:06:51.306Z,17.84
2016-04-04T05:07:47.965Z,17.88
2016-04-04T05:08:48.203Z,17.87
2016-04-04T05:09:50.876Z,17.84
2016-04-04T05:10:50.817Z,17.84
2016-04-04T05:11:50.788Z,17.86
2016-04-04T05:12:50.745Z,17.88
2016-04-04T05:13:47.700Z,17.93
2016-04-04T05:14:47.827Z,17.87
2016-04-04T05:15:47.581Z,17.9
2016-04-04T05:16:47.584Z,17.87
2016-04-04T05:17:47.789Z,17.84
2016-04-04T05:18:50.479Z,17.86
2016-04-04T05:19:47.654Z,17.9
2016-04-04T05:20:47.375Z,17.94
2016-04-04T05:21:56.330Z,17.93
2016-04-04T05:22:50.490Z,17.84
2016-04-04T05:23:47.243Z,17.91
2016-04-04T05:24:50.027Z,17.9
2016-04-04T05:25:47.435Z,17.9
2016-04-04T05:26:47.084Z,17.91
2016-04-04T05:27:47.561Z,17.88
2016-04-04T05:28:49.990Z,17.93
2016-04-04T05:29:46.930Z,17.91
2016-04-04T05:30:46.887Z,17.87
2016-04-04T05:31:49.858Z,17.9
2016-04-04T05:32:46.813Z,17.91
2016-04-04T05:33:46.754Z,17.87
2016-04-04T05:34:46.803Z,17.9
2016-04-04T05:35:46.650Z,17.91
2016-04-04T05:36:46.606Z,17.94
2016-04-04T05:37:46.577Z,17.88
2016-04-04T05:38:46.518Z,17.91
2016-04-04T05:39:49.489Z,17.88
2016-04-04T05:40:49.445Z,17.88
2016-04-04T05:41:46.384Z,17.91
2016-04-04T05:42:46.325Z,17.93
2016-04-04T05:43:46.312Z,17.84
2016-04-04T05:44:46.283Z,17.8
2016-04-04T05:45:49.193Z,17.87
2016-04-04T05:46:49.164Z,17.9
2016-04-04T05:47:46.089Z,17.87
2016-04-04T05:48:46.029Z,17.88
2016-04-04T05:49:46.109Z,17.94
2016-04-04T05:50:48.956Z,17.93
2016-04-04T05:51:45.927Z,17.9
2016-04-04T05:52:45.867Z,17.91
2016-04-04T05:53:46.010Z,17.9
2016-04-04T05:54:45.780Z,17.94
2016-04-04T05:55:45.719Z,17.88
2016-04-04T05:56:45.690Z,17.82
2016-04-04T05:57:48.631Z,17.93
2016-04-04T05:58:45.572Z,17.84
2016-04-04T05:59:45.543Z,17.91
2016-04-04T06:00:45.545Z,17.86
2016-04-04T06:01:45.470Z,17.88
2016-04-04T06:02:45.457Z,17.93
2016-04-04T06:03:48.350Z,17.91
2016-04-04T06:04:45.446Z,17.8
2016-04-04T06:05:45.262Z,17.84
2016-04-04T06:06:45.421Z,17.79
2016-04-04T06:07:45.173Z,17.84
2016-04-04T06:08:45.129Z,17.93
2016-04-04T06:09:48.304Z,17.82
2016-04-04T06:10:45.025Z,17.86
2016-04-04T06:11:44.981Z,17.84
2016-04-04T06:12:44.953Z,17.82
2016-04-04T06:13:44.892Z,17.82
2016-04-04T06:14:44.848Z,17.9
2016-04-04T06:15:44.804Z,17.9
2016-04-04T06:16:47.744Z,17.8
2016-04-04T06:17:44.684Z,17.93
2016-04-04T06:18:44.641Z,17.93
2016-04-04T06:19:44.894Z,17.9
2016-04-04T06:20:44.583Z,17.91
2016-04-04T06:21:44.508Z,17.84
2016-04-04T06:22:44.511Z,17.8
2016-04-04T06:23:44.419Z,17.87
2016-04-04T06:24:47.594Z,17.86
2016-04-04T06:25:47.346Z,17.84
2016-04-04T06:26:44.271Z,17.94
2016-04-04T06:27:44.227Z,17.91
2016-04-04T06:28:44.182Z,17.87
2016-04-04T06:29:44.124Z,17.87
2016-04-04T06:30:44.094Z,17.91
2016-04-04T06:31:44.082Z,17.87
2016-04-04T06:32:47.912Z,17.9
2016-04-04T06:33:43.994Z,17.8
2016-04-04T06:34:50.371Z,17.8
2016-04-04T06:35:43.857Z,17.9
2016-04-04T06:36:43.830Z,17.84
2016-04-04T06:37:43.754Z,17.87
2016-04-04T06:38:44.038Z,17.94
2016-04-04T06:39:43.665Z,17.94
2016-04-04T06:40:46.621Z,17.9
2016-04-04T06:41:43.656Z,17.9
2016-04-04T06:42:49.548Z,17.87
2016-04-04T06:43:43.504Z,17.9
2016-04-04T06:44:43.429Z,17.82
2016-04-04T06:45:43.401Z,17.93
2016-04-04T06:46:43.700Z,17.8
2016-04-04T06:47:43.328Z,17.79
2016-04-04T06:48:43.253Z,17.79
2016-04-04T06:49:43.505Z,17.86
2016-04-04T06:50:46.148Z,17.88
2016-04-04T06:51:43.119Z,17.88
2016-04-04T06:52:46.107Z,17.87
2016-04-04T06:53:43.047Z,17.87
2016-04-04T06:54:42.972Z,17.9
2016-04-04T06:55:42.911Z,17.87
2016-04-04T06:56:42.868Z,17.84
2016-04-04T06:57:45.871Z,17.82
2016-04-04T06:58:42.779Z,17.76
2016-04-04T06:59:49.001Z,17.82
2016-04-04T07:00:42.712Z,17.8
2016-04-04T07:01:45.652Z,17.8
2016-04-04T07:02:42.592Z,17.8
2016-04-04T07:03:42.548Z,17.8
2016-04-04T07:04:42.456Z,17.9
2016-04-04T07:05:42.476Z,17.82
2016-04-04T07:06:42.415Z,17.87
2016-04-04T07:07:42.371Z,17.88
2016-04-04T07:08:45.326Z,17.82
2016-04-04T07:09:42.470Z,17.76
2016-04-04T07:10:42.222Z,17.76
2016-04-04T07:11:42.194Z,17.86
2016-04-04T07:12:42.134Z,17.82
2016-04-04T07:13:43.136Z,17.86
2016-04-04T07:14:45.328Z,17.8
2016-04-04T07:15:42.002Z,17.8
2016-04-04T07:16:41.957Z,17.82
2016-04-04T07:17:41.928Z,17.79
2016-04-04T07:18:47.885Z,17.86
2016-04-04T07:19:44.872Z,17.76
2016-04-04T07:20:41.765Z,17.8
2016-04-04T07:21:44.737Z,17.73
2016-04-04T07:22:41.786Z,17.84
2016-04-04T07:23:41.664Z,17.8
2016-04-04T07:24:41.010Z,17.82
2016-04-04T07:25:40.935Z,17.88
2016-04-04T07:26:41.657Z,17.73
2016-04-04T07:27:41.472Z,17.88
2016-04-04T07:28:41.443Z,17.82
2016-04-04T07:29:41.382Z,17.86
2016-04-04T07:30:41.371Z,17.88
2016-04-04T07:31:41.327Z,17.75
2016-04-04T07:32:41.266Z,17.79
2016-04-04T07:33:44.159Z,17.84
2016-04-04T07:34:41.022Z,17.87
2016-04-04T07:35:41.117Z,17.8
2016-04-04T07:36:41.027Z,17.75
2016-04-04T07:37:41.014Z,17.88
2016-04-04T07:38:40.954Z,17.78
2016-04-04T07:39:40.895Z,17.76
2016-04-04T07:40:40.898Z,17.8
2016-04-04T07:41:41.103Z,17.86
2016-04-04T07:42:40.745Z,17.79
2016-04-04T07:43:40.703Z,17.87
2016-04-04T07:44:40.690Z,17.82
2016-04-04T07:45:43.645Z,17.87
2016-04-04T07:46:43.631Z,17.86
2016-04-04T07:47:40.525Z,17.8
2016-04-04T07:48:40.450Z,17.86
2016-04-04T07:49:40.484Z,17.82
2016-04-04T07:50:40.596Z,17.87
2016-04-04T07:51:40.364Z,17.8
2016-04-04T07:52:40.288Z,17.8
2016-04-04T07:53:40.230Z,17.78
2016-04-04T07:54:40.200Z,17.78
2016-04-04T07:55:40.155Z,17.88
2016-04-04T07:56:40.159Z,17.86
2016-04-04T07:57:40.068Z,17.8
2016-04-04T07:58:40.024Z,17.73
2016-04-04T07:59:40.666Z,17.78
2016-04-04T08:00:39.904Z,17.84
2016-04-04T08:01:39.890Z,17.79
2016-04-04T08:02:39.847Z,17.8
2016-04-04T08:03:39.756Z,17.76
2016-04-04T08:04:39.743Z,17.84
2016-04-04T08:05:39.683Z,17.84
2016-04-04T08:06:39.686Z,17.9
2016-04-04T08:07:39.579Z,17.87
2016-04-04T08:08:39.565Z,17.9
2016-04-04T08:09:39.537Z,17.82
2016-04-04T08:10:39.446Z,17.76
2016-04-04T08:11:39.418Z,17.84
2016-04-04T08:12:39.420Z,17.82
2016-04-04T08:13:39.361Z,17.8
2016-04-04T08:14:39.316Z,17.8
2016-04-04T08:15:39.241Z,17.8
2016-04-04T08:16:39.197Z,17.78
2016-04-04T08:17:39.169Z,17.78
2016-04-04T08:18:39.172Z,17.82
2016-04-04T08:19:39.174Z,17.79
2016-04-04T08:20:39.005Z,17.78
2016-04-04T08:21:38.976Z,17.75
2016-04-04T08:22:38.932Z,17.76
2016-04-04T08:23:41.872Z,17.76
2016-04-04T08:24:39.063Z,17.79
2016-04-04T08:25:38.816Z,17.82
2016-04-04T08:26:38.114Z,17.75
2016-04-04T08:27:38.696Z,17.73
2016-04-04T08:28:42.619Z,17.76
2016-04-04T08:29:38.577Z,17.84
2016-04-04T08:30:38.516Z,17.79
2016-04-04T08:31:38.488Z,17.82
2016-04-04T08:32:38.427Z,17.79
2016-04-04T08:33:38.358Z,17.72
2016-04-04T08:34:41.458Z,17.78
2016-04-04T08:35:38.652Z,17.76
2016-04-04T08:36:38.206Z,17.75
2016-04-04T08:37:38.118Z,17.76
2016-04-04T08:38:38.131Z,17.82
2016-04-04T08:39:38.145Z,17.78
2016-04-04T08:40:38.080Z,17.76
2016-04-04T08:41:37.923Z,17.86
2016-04-04T08:42:37.937Z,17.76
2016-04-04T08:43:37.828Z,17.82
2016-04-04T08:44:37.829Z,17.75
2016-04-04T08:45:37.722Z,17.84
2016-04-04T08:46:37.895Z,17.79
2016-04-04T08:47:37.629Z,17.8
2016-04-04T08:48:37.617Z,17.8
2016-04-04T08:49:37.555Z,17.76
2016-04-04T08:50:37.542Z,17.8
2016-04-04T08:51:37.465Z,17.82
2016-04-04T08:52:37.436Z,17.78
2016-04-04T08:53:43.407Z,17.75
2016-04-04T08:54:37.472Z,17.75
2016-04-04T08:55:37.318Z,17.78
2016-04-04T08:56:40.211Z,17.82
2016-04-04T08:57:37.275Z,17.76
2016-04-04T08:58:37.528Z,17.78
2016-04-04T08:59:37.078Z,17.84
2016-04-04T09:00:37.191Z,17.72
2016-04-04T09:01:37.036Z,17.8
2016-04-04T09:02:37.351Z,17.84
2016-04-04T09:03:36.933Z,17.75
2016-04-04T09:04:37.388Z,17.84
2016-04-04T09:05:36.860Z,17.76
2016-04-04T09:06:36.815Z,17.76
2016-04-04T09:07:39.740Z,17.79
2016-04-04T09:08:36.665Z,17.78
2016-04-04T09:09:36.621Z,17.73
2016-04-04T09:10:36.701Z,17.78
2016-04-04T09:11:36.595Z,17.78
2016-04-04T09:12:36.503Z,17.76
2016-04-04T09:13:39.443Z,17.76
2016-04-04T09:14:39.743Z,17.8
2016-04-04T09:15:36.340Z,17.72
2016-04-04T09:16:39.311Z,17.82
2016-04-04T09:17:36.251Z,17.76
2016-04-04T09:18:39.192Z,17.73
2016-04-04T09:19:36.428Z,17.79
2016-04-04T09:20:36.400Z,17.76
2016-04-04T09:21:36.247Z,17.84
2016-04-04T09:22:35.999Z,17.84
2016-04-04T09:23:35.986Z,17.73
2016-04-04T09:24:35.958Z,17.78
2016-04-04T09:25:35.867Z,17.78
2016-04-04T09:26:36.010Z,17.78
2016-04-04T09:27:38.794Z,17.76
2016-04-04T09:28:35.766Z,17.84
2016-04-04T09:29:35.705Z,17.75
2016-04-04T09:30:35.646Z,17.84
2016-04-04T09:31:35.586Z,17.84
2016-04-04T09:32:35.854Z,17.82
2016-04-04T09:33:35.560Z,17.8
2016-04-04T09:34:35.469Z,17.78
2016-04-04T09:35:35.565Z,17.79
2016-04-04T09:36:35.396Z,17.8
2016-04-04T09:37:35.836Z,17.76
2016-04-04T09:38:35.277Z,17.8
2016-04-04T09:39:35.263Z,17.82
2016-04-04T09:40:35.204Z,17.79
2016-04-04T09:41:35.393Z,17.73
2016-04-04T09:42:35.256Z,17.76
2016-04-04T09:43:35.774Z,17.73
2016-04-04T09:44:35.012Z,17.78
2016-04-04T09:45:35.421Z,17.8
2016-04-04T09:46:35.017Z,17.78
2016-04-04T09:47:37.972Z,17.78
2016-04-04T09:48:34.945Z,17.84
2016-04-04T09:49:34.869Z,17.82
2016-04-04T09:50:35.293Z,17.82
2016-04-04T09:51:37.702Z,17.78
2016-04-04T09:52:34.642Z,17.76
2016-04-04T09:53:34.628Z,17.79
2016-04-04T09:54:34.631Z,17.73
2016-04-04T09:55:34.698Z,17.84
2016-04-04T09:56:35.059Z,17.8
2016-04-04T09:57:34.469Z,17.8
2016-04-04T09:58:35.283Z,17.76
2016-04-04T09:59:34.333Z,17.82
2016-04-04T10:00:37.430Z,17.86
2016-04-04T10:01:34.276Z,17.86
2016-04-04T10:02:34.201Z,17.8
2016-04-04T10:03:34.250Z,17.8
2016-04-04T10:04:34.096Z,17.79
2016-04-04T10:05:37.240Z,17.76
2016-04-04T10:06:33.993Z,17.76
2016-04-04T10:07:33.933Z,17.72
2016-04-04T10:08:34.013Z,17.8
2016-04-04T10:09:34.115Z,17.79
2016-04-04T10:10:33.851Z,17.84
2016-04-04T10:11:36.902Z,17.8
2016-04-04T10:12:36.795Z,17.86
2016-04-04T10:13:33.657Z,17.76
2016-04-04T10:14:33.706Z,17.75
2016-04-04T10:15:33.553Z,17.84
2016-04-04T10:16:34.618Z,17.75
2016-04-04T10:17:33.527Z,17.78
2016-04-04T10:18:36.904Z,17.88
2016-04-04T10:19:36.626Z,17.8
2016-04-04T10:20:33.316Z,17.8
2016-04-04T10:21:33.397Z,17.78
2016-04-04T10:22:33.306Z,17.82
2016-04-04T10:23:37.590Z,17.84
2016-04-04T10:24:33.186Z,17.8
2016-04-04T10:25:34.002Z,17.76
2016-04-04T10:26:33.255Z,17.78
2016-04-04T10:27:33.101Z,17.8
2016-04-04T10:28:32.963Z,17.8
2016-04-04T10:29:33.013Z,17.8
2016-04-04T10:30:32.874Z,17.73
2016-04-04T10:31:33.096Z,17.78
2016-04-04T10:32:33.098Z,17.78
2016-04-04T10:33:34.102Z,17.78
2016-04-04T10:34:32.683Z,17.78
2016-04-04T10:35:33.263Z,17.78
2016-04-04T10:36:32.577Z,17.79
2016-04-04T10:37:32.534Z,17.73
2016-04-04T10:38:32.473Z,17.8
2016-04-04T10:39:32.460Z,17.8
2016-04-04T10:40:32.371Z,17.75
2016-04-04T10:41:34.107Z,17.82
2016-04-04T10:42:32.735Z,17.87
2016-04-04T10:43:32.346Z,17.86
2016-04-04T10:44:32.256Z,17.84
2016-04-04T10:45:32.165Z,17.76
2016-04-04T10:46:32.199Z,17.75
2016-04-04T10:47:35.217Z,17.8
2016-04-04T10:48:32.204Z,17.84
2016-04-04T10:49:31.972Z,17.73
2016-04-04T10:50:31.975Z,17.79
2016-04-04T10:51:32.900Z,17.78
2016-04-04T10:52:32.137Z,17.78
2016-04-04T10:53:31.748Z,17.79
2016-04-04T10:54:34.751Z,17.79
2016-04-04T10:55:31.738Z,17.8
2016-04-04T10:56:31.710Z,17.87
2016-04-04T10:57:31.650Z,17.86
2016-04-04T10:58:31.575Z,17.78
2016-04-04T10:59:31.483Z,17.78
2016-04-04T11:00:31.330Z,17.8
2016-04-04T11:01:31.458Z,17.75
2016-04-04T11:02:31.352Z,17.73
2016-04-04T11:03:31.275Z,17.84
2016-04-04T11:04:31.247Z,17.72
2016-04-04T11:05:31.280Z,17.78
2016-04-04T11:06:31.159Z,17.73
2016-04-04T11:07:30.802Z,17.78
2016-04-04T11:08:31.705Z,17.78
2016-04-04T11:09:31.004Z,17.82
2016-04-04T11:10:31.007Z,17.8
2016-04-04T11:11:33.962Z,17.84
2016-04-04T11:12:30.919Z,17.78
2016-04-04T11:13:30.890Z,17.78
2016-04-04T11:14:30.815Z,17.8
2016-04-04T11:15:30.927Z,17.75
2016-04-04T11:16:30.695Z,17.76
2016-04-04T11:17:30.776Z,17.75
2016-04-04T11:18:30.639Z,17.84
2016-04-04T11:19:31.266Z,17.78
2016-04-04T11:20:30.503Z,17.75
2016-04-04T11:21:30.475Z,17.84
2016-04-04T11:22:30.712Z,17.79
2016-04-04T11:23:30.386Z,17.87
2016-04-04T11:24:30.452Z,17.79
2016-04-04T11:25:30.330Z,17.78
2016-04-04T11:26:30.222Z,17.78
2016-04-04T11:27:30.210Z,17.84
2016-04-04T11:28:30.322Z,17.73
2016-04-04T11:29:30.230Z,17.8
2016-04-04T11:30:30.061Z,17.79
2016-04-04T11:31:30.251Z,17.78
2016-04-04T11:32:30.035Z,17.75
2016-04-04T11:33:29.912Z,17.84
2016-04-04T11:34:30.009Z,17.87
2016-04-04T11:35:29.871Z,17.79
2016-04-04T11:36:29.811Z,17.8
2016-04-04T11:37:29.767Z,17.78
2016-04-04T11:38:29.869Z,17.8
2016-04-04T11:39:29.684Z,17.79
2016-04-04T11:40:29.671Z,17.73
2016-04-04T11:41:32.642Z,17.84
2016-04-04T11:42:29.489Z,17.9
2016-04-04T11:43:29.711Z,17.78
2016-04-04T11:44:29.494Z,17.84
2016-04-04T11:45:29.356Z,17.86
2016-04-04T11:46:29.374Z,17.82
2016-04-04T11:47:29.267Z,17.84
2016-04-04T11:48:29.192Z,17.78
2016-04-04T11:49:29.132Z,17.84
2016-04-04T11:50:29.291Z,17.75
2016-04-04T11:51:29.013Z,17.79
2016-04-04T11:52:29.000Z,17.79
2016-04-04T11:53:28.971Z,17.82
2016-04-04T11:54:28.944Z,17.79
2016-04-04T11:55:28.852Z,17.82
2016-04-04T11:56:28.824Z,17.88
2016-04-04T11:57:28.749Z,17.93
2016-04-04T11:58:29.376Z,17.8
2016-04-04T11:59:28.691Z,17.82
2016-04-04T12:00:28.459Z,17.84
2016-04-04T12:01:28.680Z,17.82
2016-04-04T12:02:28.543Z,17.8
2016-04-04T12:03:31.857Z,17.88
2016-04-04T12:04:28.454Z,17.88
2016-04-04T12:05:28.440Z,17.84
2016-04-04T12:06:28.428Z,17.78
2016-04-04T12:07:28.321Z,17.9
2016-04-04T12:08:28.823Z,17.84
2016-04-04T12:09:28.218Z,17.87
2016-04-04T12:10:28.189Z,17.8
2016-04-04T12:11:28.176Z,17.8
2016-04-04T12:12:28.195Z,17.82
2016-04-04T12:13:28.104Z,17.87
2016-04-04T12:14:28.106Z,17.87
2016-04-04T12:15:28.093Z,17.87
2016-04-04T12:16:27.330Z,17.79
2016-04-04T12:17:28.145Z,17.8
2016-04-04T12:18:29.461Z,17.87
2016-04-04T12:19:28.432Z,17.88
2016-04-04T12:20:27.701Z,17.9
2016-04-04T12:21:27.688Z,17.8
2016-04-04T12:22:28.050Z,17.91
2016-04-04T12:23:27.600Z,17.84
2016-04-04T12:24:27.571Z,17.9
2016-04-04T12:25:27.620Z,17.79
2016-04-04T12:26:27.452Z,17.88
2016-04-04T12:27:27.407Z,17.93
2016-04-04T12:28:27.410Z,17.8
2016-04-04T12:29:27.334Z,17.79
2016-04-04T12:30:27.540Z,17.87
2016-04-04T12:31:28.043Z,17.9
2016-04-04T12:32:27.170Z,17.91
2016-04-04T12:33:27.376Z,17.87
2016-04-04T12:34:27.081Z,17.86
2016-04-04T12:35:27.021Z,17.9
2016-04-04T12:36:26.962Z,17.8
2016-04-04T12:37:27.137Z,17.9
2016-04-04T12:38:26.889Z,17.93
2016-04-04T12:39:27.205Z,17.93
2016-04-04T12:40:27.332Z,17.91
2016-04-04T12:41:27.367Z,17.87
2016-04-04T12:42:26.698Z,17.93
2016-04-04T12:43:26.622Z,17.93
2016-04-04T12:44:26.671Z,17.82
2016-04-04T12:45:26.580Z,17.84
2016-04-04T12:46:26.864Z,17.88
2016-04-04T12:47:26.789Z,17.8
2016-04-04T12:48:27.447Z,17.86
2016-04-04T12:49:30.747Z,17.87
2016-04-04T12:50:26.344Z,17.86
2016-04-04T12:51:27.174Z,17.8
2016-04-04T12:52:26.333Z,17.93
2016-04-04T12:53:26.273Z,17.93
2016-04-04T12:54:26.166Z,17.84
2016-04-04T12:55:26.247Z,17.82
2016-04-04T12:56:29.077Z,17.76